臺北終端管制區 - 桃園五邊雷達席

METAR RCTP 270100Z 36011KT 6000 -RA FEW003 BKN005 BKN008 15/14 Q1016 TEMPO 4000 RA RMK A3003 RA AMT 1.0MM(A)=

站台狀態:Offline
最後更新:2021-02-27 09:00:02